Terminal Aerodrome Forecast
Issued by NWS Nashville, TN

Home | Current Version | Previous Version | Text Only | Print | Product List | Glossary On
Versions: 1 2 3 4 5 6 7 8 9 10 11 12 13 14 15 16 17 18 19 20
000
FTUS44 KOHX 230500
TAFCSV
TAF
KCSV 230522Z 2306/2406 00000KT 5SM BR VCSH FEW040 BKN150
      TEMPO 2309/2313 2SM BR
     FM231300 30002KT P6SM SKC
     FM231700 31006KT P6SM SCT035 PROB30 2319/2323 5SM -SHRA OVC035
     FM240400 00000KT 5SM BR SKC=

USA.gov is the U.S. government's official web portal to all federal, state and local government web resources and services.